New Braunfels, TX (78132)

3:07 AM CDT on July 06, 2015 (GMT -0500)
Preiss Heights | | Change Station
CLOSE
Current Station
Personal Weather Station
Location: New Braunfels, TX
Elevation: 690 ft
Nearby Weather Stations

Elev 690 ft 29.74 °N, 98.12 °W | Updated 1 second ago

Overcast
Overcast
78.2 °F
Feels Like 81 °F
N
0.0
Wind Variable Wind from North
Gusts 0.0 mph

Today
High -- | Low -- °F
--% Chance of Precip.
Yesterday
High -- | Low -- °F
Precip. -- in
6:37 AM 8:36 PM
Waning Gibbous, 77% visible
Pressure 29.98 in
Visibility 10.0 miles
Clouds Overcast 1900 ft
Heat Index 81 °F
Dew Point 74 °F
Humidity 88%
Rainfall 0.00 in
Snow Depth Not available.
UV 0 out of 12
Pollen 3.00 out of 12
Air Quality Not available.
Flu Activity Not available.
METAR KBAZ 060751Z AUTO 18009KT 10SM OVC019 26/23 A3000 RMK AO2 SLP150 T02610233

More Conditions Fewer Conditions

Pressure 29.98 in
Visibility 10.0 miles
Clouds Overcast 1900 ft
Heat Index 81 °F
Dew Point 74 °F
Humidity 88%
Rainfall 0.00 in
Snow Depth Not available.
UV 0 out of 12
Pollen 3.00 out of 12
Air Quality Not available.
Flu Activity Not available.
METAR KBAZ 060751Z AUTO 18009KT 10SM OVC019 26/23 A3000 RMK AO2 SLP150 T02610233

More Conditions Fewer Conditions

10-Day Weather Forecast

×

Almanac

Astronomy

Jul. 06, 2015 Rise Set
Actual Time
Civil Twilight
Nautical Twilight
Astronomical Twilight
Moon
Length of Visible Light
Length of Day
Tomorrow will be .
, % of the Moon is Illuminated

Today's Extremes

State Highs State Lows

Community

WunderPhotos

Upload Photos

1,835,508 photos uploaded!

WunderBlogs® & News

Nearby

Air Quality

  Air Quality AQ Index Pollutant
Not available.

Snow Depth

Station Depth Elevation

Earthquake Activity

City Distance Mag. Time & Date
Minimum magnitude displayed is 2.5.

Coastal Water Temperatures

Place Temperature

Stations

Nearby Weather Stations

Station Location Temp. Windchill Dew Point Humidity Wind Precip. Elev Updated Type